sensor_id;sensor_type;location;lat;lon;timestamp;temperature;humidity
19031;DHT22;9648;51.130;13.978;2023-07-30T00:00:31;13.80;99.90
19031;DHT22;9648;51.130;13.978;2023-07-30T00:02:58;13.80;99.90
19031;DHT22;9648;51.130;13.978;2023-07-30T00:05:25;13.80;99.90
19031;DHT22;9648;51.130;13.978;2023-07-30T00:07:53;13.80;99.90
19031;DHT22;9648;51.130;13.978;2023-07-30T00:10:22;13.80;99.90
19031;DHT22;9648;51.130;13.978;2023-07-30T00:12:48;13.80;99.90
19031;DHT22;9648;51.130;13.978;2023-07-30T00:15:15;13.80;99.90
19031;DHT22;9648;51.130;13.978;2023-07-30T00:17:42;13.80;99.90
19031;DHT22;9648;51.130;13.978;2023-07-30T00:20:09;13.80;99.90
19031;DHT22;9648;51.130;13.978;2023-07-30T00:22:36;13.80;99.90
19031;DHT22;9648;51.130;13.978;2023-07-30T00:25:03;13.80;99.90
19031;DHT22;9648;51.130;13.978;2023-07-30T00:27:31;13.80;99.90
19031;DHT22;9648;51.130;13.978;2023-07-30T00:29:58;13.80;99.90
19031;DHT22;9648;51.130;13.978;2023-07-30T00:32:25;13.80;99.90
19031;DHT22;9648;51.130;13.978;2023-07-30T00:34:52;13.80;99.90
19031;DHT22;9648;51.130;13.978;2023-07-30T00:37:19;13.80;99.90
19031;DHT22;9648;51.130;13.978;2023-07-30T00:39:46;13.80;99.90
19031;DHT22;9648;51.130;13.978;2023-07-30T00:42:12;13.80;99.90
19031;DHT22;9648;51.130;13.978;2023-07-30T00:44:41;13.80;99.90
19031;DHT22;9648;51.130;13.978;2023-07-30T00:47:08;13.80;99.90
19031;DHT22;9648;51.130;13.978;2023-07-30T00:49:34;13.80;99.90
19031;DHT22;9648;51.130;13.978;2023-07-30T00:52:01;13.80;99.90
19031;DHT22;9648;51.130;13.978;2023-07-30T00:54:29;13.80;99.90
19031;DHT22;9648;51.130;13.978;2023-07-30T00:56:56;13.80;99.90
19031;DHT22;9648;51.130;13.978;2023-07-30T00:59:23;13.80;99.90
19031;DHT22;9648;51.130;13.978;2023-07-30T01:01:52;13.80;99.90
19031;DHT22;9648;51.130;13.978;2023-07-30T01:04:20;13.80;99.90
19031;DHT22;9648;51.130;13.978;2023-07-30T01:06:46;13.80;99.90
19031;DHT22;9648;51.130;13.978;2023-07-30T01:09:13;13.80;99.90
19031;DHT22;9648;51.130;13.978;2023-07-30T01:11:41;13.80;99.90
19031;DHT22;9648;51.130;13.978;2023-07-30T01:14:09;13.80;99.90
19031;DHT22;9648;51.130;13.978;2023-07-30T01:16:36;13.80;99.90
19031;DHT22;9648;51.130;13.978;2023-07-30T01:19:06;13.80;99.90
19031;DHT22;9648;51.130;13.978;2023-07-30T01:21:34;13.80;99.90
19031;DHT22;9648;51.130;13.978;2023-07-30T01:24:01;13.70;99.90
19031;DHT22;9648;51.130;13.978;2023-07-30T01:26:32;13.70;99.90
19031;DHT22;9648;51.130;13.978;2023-07-30T01:29:01;13.70;99.90
19031;DHT22;9648;51.130;13.978;2023-07-30T01:31:30;13.70;99.90
19031;DHT22;9648;51.130;13.978;2023-07-30T01:33:59;13.60;99.90
19031;DHT22;9648;51.130;13.978;2023-07-30T01:36:29;13.60;99.90
19031;DHT22;9648;51.130;13.978;2023-07-30T01:38:58;13.60;99.90
19031;DHT22;9648;51.130;13.978;2023-07-30T01:41:26;13.60;99.90
19031;DHT22;9648;51.130;13.978;2023-07-30T01:43:53;13.60;99.90
19031;DHT22;9648;51.130;13.978;2023-07-30T01:46:23;13.50;99.90
19031;DHT22;9648;51.130;13.978;2023-07-30T01:48:50;13.50;99.90
19031;DHT22;9648;51.130;13.978;2023-07-30T01:51:16;13.50;99.90
19031;DHT22;9648;51.130;13.978;2023-07-30T01:53:43;13.50;99.90
19031;DHT22;9648;51.130;13.978;2023-07-30T01:56:11;13.50;99.90
19031;DHT22;9648;51.130;13.978;2023-07-30T01:58:39;13.40;99.90
19031;DHT22;9648;51.130;13.978;2023-07-30T02:01:06;13.40;99.90
19031;DHT22;9648;51.130;13.978;2023-07-30T02:03:32;13.40;99.90
19031;DHT22;9648;51.130;13.978;2023-07-30T02:05:59;13.40;99.90
19031;DHT22;9648;51.130;13.978;2023-07-30T02:08:26;13.40;99.90
19031;DHT22;9648;51.130;13.978;2023-07-30T02:10:56;13.30;99.90
19031;DHT22;9648;51.130;13.978;2023-07-30T02:13:25;13.30;99.90
19031;DHT22;9648;51.130;13.978;2023-07-30T02:15:52;13.30;99.90
19031;DHT22;9648;51.130;13.978;2023-07-30T02:18:19;13.30;99.90
19031;DHT22;9648;51.130;13.978;2023-07-30T02:20:46;13.30;99.90
19031;DHT22;9648;51.130;13.978;2023-07-30T02:23:14;13.30;99.90
19031;DHT22;9648;51.130;13.978;2023-07-30T02:25:41;13.30;99.90
19031;DHT22;9648;51.130;13.978;2023-07-30T02:28:09;13.30;99.90
19031;DHT22;9648;51.130;13.978;2023-07-30T02:30:37;13.30;99.90
19031;DHT22;9648;51.130;13.978;2023-07-30T02:33:04;13.30;99.90
19031;DHT22;9648;51.130;13.978;2023-07-30T02:35:31;13.30;99.90
19031;DHT22;9648;51.130;13.978;2023-07-30T02:37:58;13.30;99.90
19031;DHT22;9648;51.130;13.978;2023-07-30T02:40:26;13.30;99.90
19031;DHT22;9648;51.130;13.978;2023-07-30T02:42:53;13.30;99.90
19031;DHT22;9648;51.130;13.978;2023-07-30T02:45:20;13.30;99.90
19031;DHT22;9648;51.130;13.978;2023-07-30T02:47:48;13.30;99.90
19031;DHT22;9648;51.130;13.978;2023-07-30T02:50:15;13.30;99.90
19031;DHT22;9648;51.130;13.978;2023-07-30T02:52:42;13.40;99.90
19031;DHT22;9648;51.130;13.978;2023-07-30T02:55:09;13.40;99.90
19031;DHT22;9648;51.130;13.978;2023-07-30T02:57:36;13.40;99.90
19031;DHT22;9648;51.130;13.978;2023-07-30T03:00:03;13.50;99.90
19031;DHT22;9648;51.130;13.978;2023-07-30T03:02:30;13.50;99.90
19031;DHT22;9648;51.130;13.978;2023-07-30T03:04:59;13.50;99.90
19031;DHT22;9648;51.130;13.978;2023-07-30T03:07:26;13.60;99.90
19031;DHT22;9648;51.130;13.978;2023-07-30T03:09:53;13.60;99.90
19031;DHT22;9648;51.130;13.978;2023-07-30T03:12:19;13.60;99.90
19031;DHT22;9648;51.130;13.978;2023-07-30T03:14:46;13.60;99.90
19031;DHT22;9648;51.130;13.978;2023-07-30T03:17:13;13.60;99.90
19031;DHT22;9648;51.130;13.978;2023-07-30T03:19:40;13.60;99.90
19031;DHT22;9648;51.130;13.978;2023-07-30T03:22:08;13.60;99.90
19031;DHT22;9648;51.130;13.978;2023-07-30T03:24:35;13.70;99.90
19031;DHT22;9648;51.130;13.978;2023-07-30T03:27:02;13.70;99.90
19031;DHT22;9648;51.130;13.978;2023-07-30T03:29:29;13.70;99.90
19031;DHT22;9648;51.130;13.978;2023-07-30T03:31:56;13.80;99.90
19031;DHT22;9648;51.130;13.978;2023-07-30T03:34:23;13.80;99.90
19031;DHT22;9648;51.130;13.978;2023-07-30T03:36:49;13.90;99.90
19031;DHT22;9648;51.130;13.978;2023-07-30T03:39:17;13.90;99.90
19031;DHT22;9648;51.130;13.978;2023-07-30T03:41:44;14.00;99.90
19031;DHT22;9648;51.130;13.978;2023-07-30T03:44:11;14.00;99.90
19031;DHT22;9648;51.130;13.978;2023-07-30T03:46:38;14.10;99.90
19031;DHT22;9648;51.130;13.978;2023-07-30T03:49:04;14.10;99.90
19031;DHT22;9648;51.130;13.978;2023-07-30T03:51:31;14.20;99.90
19031;DHT22;9648;51.130;13.978;2023-07-30T03:53:58;14.20;99.90
19031;DHT22;9648;51.130;13.978;2023-07-30T03:56:27;14.30;99.90
19031;DHT22;9648;51.130;13.978;2023-07-30T03:58:54;14.30;99.90
19031;DHT22;9648;51.130;13.978;2023-07-30T04:01:20;14.40;99.90
19031;DHT22;9648;51.130;13.978;2023-07-30T04:03:47;14.40;99.90
19031;DHT22;9648;51.130;13.978;2023-07-30T04:06:14;14.40;99.90
19031;DHT22;9648;51.130;13.978;2023-07-30T04:08:41;14.40;99.90
19031;DHT22;9648;51.130;13.978;2023-07-30T04:11:08;14.50;99.90
19031;DHT22;9648;51.130;13.978;2023-07-30T04:13:36;14.50;99.90
19031;DHT22;9648;51.130;13.978;2023-07-30T04:16:03;14.50;99.90
19031;DHT22;9648;51.130;13.978;2023-07-30T04:18:30;14.50;99.90
19031;DHT22;9648;51.130;13.978;2023-07-30T04:20:57;14.60;99.90
19031;DHT22;9648;51.130;13.978;2023-07-30T04:23:24;14.60;99.90
19031;DHT22;9648;51.130;13.978;2023-07-30T04:25:51;14.60;99.90
19031;DHT22;9648;51.130;13.978;2023-07-30T04:28:18;14.60;99.90
19031;DHT22;9648;51.130;13.978;2023-07-30T04:30:46;14.60;99.90
19031;DHT22;9648;51.130;13.978;2023-07-30T04:33:13;14.70;99.90
19031;DHT22;9648;51.130;13.978;2023-07-30T04:35:40;14.70;99.90
19031;DHT22;9648;51.130;13.978;2023-07-30T04:38:08;14.70;99.90
19031;DHT22;9648;51.130;13.978;2023-07-30T04:40:35;14.80;99.90
19031;DHT22;9648;51.130;13.978;2023-07-30T04:43:02;14.80;99.90
19031;DHT22;9648;51.130;13.978;2023-07-30T04:45:29;14.90;99.90
19031;DHT22;9648;51.130;13.978;2023-07-30T04:47:57;15.00;99.90
19031;DHT22;9648;51.130;13.978;2023-07-30T04:50:24;15.10;99.90
19031;DHT22;9648;51.130;13.978;2023-07-30T04:52:51;15.20;99.90
19031;DHT22;9648;51.130;13.978;2023-07-30T04:55:18;15.30;99.90
19031;DHT22;9648;51.130;13.978;2023-07-30T04:57:45;15.40;99.90
19031;DHT22;9648;51.130;13.978;2023-07-30T05:00:12;15.50;99.90
19031;DHT22;9648;51.130;13.978;2023-07-30T05:02:39;15.60;99.90
19031;DHT22;9648;51.130;13.978;2023-07-30T05:05:08;15.60;99.90
19031;DHT22;9648;51.130;13.978;2023-07-30T05:07:34;15.60;99.90
19031;DHT22;9648;51.130;13.978;2023-07-30T05:10:01;15.70;99.90
19031;DHT22;9648;51.130;13.978;2023-07-30T05:12:31;15.70;99.90
19031;DHT22;9648;51.130;13.978;2023-07-30T05:14:58;15.70;99.90
19031;DHT22;9648;51.130;13.978;2023-07-30T05:17:25;15.70;99.90
19031;DHT22;9648;51.130;13.978;2023-07-30T05:19:52;15.70;99.90
19031;DHT22;9648;51.130;13.978;2023-07-30T05:22:20;15.80;99.90
19031;DHT22;9648;51.130;13.978;2023-07-30T05:24:47;15.80;99.90
19031;DHT22;9648;51.130;13.978;2023-07-30T05:27:14;15.80;99.90
19031;DHT22;9648;51.130;13.978;2023-07-30T05:29:41;15.90;99.90
19031;DHT22;9648;51.130;13.978;2023-07-30T05:32:08;16.00;99.90
19031;DHT22;9648;51.130;13.978;2023-07-30T05:34:35;16.10;99.90
19031;DHT22;9648;51.130;13.978;2023-07-30T05:37:02;16.20;99.90
19031;DHT22;9648;51.130;13.978;2023-07-30T05:39:31;16.30;99.90
19031;DHT22;9648;51.130;13.978;2023-07-30T05:41:57;16.40;99.90
19031;DHT22;9648;51.130;13.978;2023-07-30T05:44:24;16.60;99.90
19031;DHT22;9648;51.130;13.978;2023-07-30T05:46:51;16.70;99.90
19031;DHT22;9648;51.130;13.978;2023-07-30T05:49:19;16.90;99.90
19031;DHT22;9648;51.130;13.978;2023-07-30T05:51:46;16.90;99.90
19031;DHT22;9648;51.130;13.978;2023-07-30T05:54:13;17.00;99.90
19031;DHT22;9648;51.130;13.978;2023-07-30T05:56:41;17.10;99.90
19031;DHT22;9648;51.130;13.978;2023-07-30T05:59:08;17.10;99.90
19031;DHT22;9648;51.130;13.978;2023-07-30T06:01:35;17.30;99.90
19031;DHT22;9648;51.130;13.978;2023-07-30T06:04:02;17.40;99.90
19031;DHT22;9648;51.130;13.978;2023-07-30T06:06:29;17.50;99.90
19031;DHT22;9648;51.130;13.978;2023-07-30T06:08:56;17.60;99.90
19031;DHT22;9648;51.130;13.978;2023-07-30T06:11:23;17.70;99.90
19031;DHT22;9648;51.130;13.978;2023-07-30T06:13:51;17.80;99.90
19031;DHT22;9648;51.130;13.978;2023-07-30T06:16:18;17.90;99.90
19031;DHT22;9648;51.130;13.978;2023-07-30T06:18:45;18.00;99.90
19031;DHT22;9648;51.130;13.978;2023-07-30T06:21:12;18.00;99.90
19031;DHT22;9648;51.130;13.978;2023-07-30T06:23:39;18.00;99.90
19031;DHT22;9648;51.130;13.978;2023-07-30T06:26:06;18.00;99.90
19031;DHT22;9648;51.130;13.978;2023-07-30T06:28:33;18.10;99.90
19031;DHT22;9648;51.130;13.978;2023-07-30T06:31:01;18.10;99.90
19031;DHT22;9648;51.130;13.978;2023-07-30T06:33:28;18.10;99.90
19031;DHT22;9648;51.130;13.978;2023-07-30T06:35:55;18.10;99.90
19031;DHT22;9648;51.130;13.978;2023-07-30T06:38:22;18.10;99.90
19031;DHT22;9648;51.130;13.978;2023-07-30T06:40:48;18.10;99.90
19031;DHT22;9648;51.130;13.978;2023-07-30T06:43:15;18.10;99.90
19031;DHT22;9648;51.130;13.978;2023-07-30T06:45:42;18.20;99.90
19031;DHT22;9648;51.130;13.978;2023-07-30T06:48:11;18.20;99.90
19031;DHT22;9648;51.130;13.978;2023-07-30T06:50:37;18.10;99.90
19031;DHT22;9648;51.130;13.978;2023-07-30T06:53:04;18.10;99.90
19031;DHT22;9648;51.130;13.978;2023-07-30T06:55:31;18.20;99.90
19031;DHT22;9648;51.130;13.978;2023-07-30T06:57:58;18.20;99.90
19031;DHT22;9648;51.130;13.978;2023-07-30T07:00:25;18.30;99.90
19031;DHT22;9648;51.130;13.978;2023-07-30T07:02:52;18.30;99.90
19031;DHT22;9648;51.130;13.978;2023-07-30T07:05:20;18.40;99.90
19031;DHT22;9648;51.130;13.978;2023-07-30T07:07:47;18.40;99.90
19031;DHT22;9648;51.130;13.978;2023-07-30T07:10:14;18.50;99.90
19031;DHT22;9648;51.130;13.978;2023-07-30T07:12:41;18.50;99.90
19031;DHT22;9648;51.130;13.978;2023-07-30T07:15:08;18.60;99.90
19031;DHT22;9648;51.130;13.978;2023-07-30T07:17:35;18.60;99.90
19031;DHT22;9648;51.130;13.978;2023-07-30T07:20:02;18.70;99.90
19031;DHT22;9648;51.130;13.978;2023-07-30T07:22:32;18.70;99.90
19031;DHT22;9648;51.130;13.978;2023-07-30T07:24:58;18.80;99.90
19031;DHT22;9648;51.130;13.978;2023-07-30T07:27:25;18.80;99.90
19031;DHT22;9648;51.130;13.978;2023-07-30T07:29:52;18.90;99.90
19031;DHT22;9648;51.130;13.978;2023-07-30T07:32:19;18.90;99.90
19031;DHT22;9648;51.130;13.978;2023-07-30T07:34:46;18.90;99.90
19031;DHT22;9648;51.130;13.978;2023-07-30T07:37:13;18.90;99.90
19031;DHT22;9648;51.130;13.978;2023-07-30T07:39:43;18.90;99.90
19031;DHT22;9648;51.130;13.978;2023-07-30T07:42:10;19.00;99.90
19031;DHT22;9648;51.130;13.978;2023-07-30T07:44:37;19.10;99.90
19031;DHT22;9648;51.130;13.978;2023-07-30T07:47:04;19.20;99.90
19031;DHT22;9648;51.130;13.978;2023-07-30T07:49:31;19.20;99.90
19031;DHT22;9648;51.130;13.978;2023-07-30T07:51:58;19.40;99.90
19031;DHT22;9648;51.130;13.978;2023-07-30T07:54:25;19.40;99.90
19031;DHT22;9648;51.130;13.978;2023-07-30T07:56:53;19.50;99.90
19031;DHT22;9648;51.130;13.978;2023-07-30T07:59:20;19.60;99.90
19031;DHT22;9648;51.130;13.978;2023-07-30T08:01:47;19.60;99.90
19031;DHT22;9648;51.130;13.978;2023-07-30T08:04:14;19.60;99.90
19031;DHT22;9648;51.130;13.978;2023-07-30T08:06:41;19.60;99.90
19031;DHT22;9648;51.130;13.978;2023-07-30T08:09:08;19.60;99.90
19031;DHT22;9648;51.130;13.978;2023-07-30T08:11:35;19.70;99.90
19031;DHT22;9648;51.130;13.978;2023-07-30T08:14:03;19.60;99.90
19031;DHT22;9648;51.130;13.978;2023-07-30T08:16:30;19.50;99.90
19031;DHT22;9648;51.130;13.978;2023-07-30T08:18:57;19.40;99.90
19031;DHT22;9648;51.130;13.978;2023-07-30T08:21:25;19.30;99.90
19031;DHT22;9648;51.130;13.978;2023-07-30T08:23:52;19.30;99.90
19031;DHT22;9648;51.130;13.978;2023-07-30T08:26:18;19.40;99.90
19031;DHT22;9648;51.130;13.978;2023-07-30T08:28:45;19.40;99.90
19031;DHT22;9648;51.130;13.978;2023-07-30T08:31:13;19.40;99.90
19031;DHT22;9648;51.130;13.978;2023-07-30T08:33:40;19.50;99.90
19031;DHT22;9648;51.130;13.978;2023-07-30T08:36:07;19.60;99.90
19031;DHT22;9648;51.130;13.978;2023-07-30T08:38:34;19.70;99.90
19031;DHT22;9648;51.130;13.978;2023-07-30T08:41:01;19.80;99.90
19031;DHT22;9648;51.130;13.978;2023-07-30T08:43:28;19.90;99.90
19031;DHT22;9648;51.130;13.978;2023-07-30T08:45:55;20.00;99.90
19031;DHT22;9648;51.130;13.978;2023-07-30T08:48:25;20.10;99.90
19031;DHT22;9648;51.130;13.978;2023-07-30T08:50:52;20.30;99.90
19031;DHT22;9648;51.130;13.978;2023-07-30T08:53:23;20.40;99.90
19031;DHT22;9648;51.130;13.978;2023-07-30T08:55:51;20.40;99.90
19031;DHT22;9648;51.130;13.978;2023-07-30T08:58:19;20.60;99.90
19031;DHT22;9648;51.130;13.978;2023-07-30T09:00:47;20.70;99.90
19031;DHT22;9648;51.130;13.978;2023-07-30T09:03:17;20.90;99.90
19031;DHT22;9648;51.130;13.978;2023-07-30T09:05:45;21.00;99.90
19031;DHT22;9648;51.130;13.978;2023-07-30T09:08:12;21.00;99.90
19031;DHT22;9648;51.130;13.978;2023-07-30T09:10:39;21.00;99.90
19031;DHT22;9648;51.130;13.978;2023-07-30T09:13:06;21.00;99.90
19031;DHT22;9648;51.130;13.978;2023-07-30T09:15:37;20.90;99.90
19031;DHT22;9648;51.130;13.978;2023-07-30T09:18:04;21.00;99.90
19031;DHT22;9648;51.130;13.978;2023-07-30T09:20:37;21.10;99.90
19031;DHT22;9648;51.130;13.978;2023-07-30T09:23:06;21.20;99.90
19031;DHT22;9648;51.130;13.978;2023-07-30T09:25:33;21.40;99.90
19031;DHT22;9648;51.130;13.978;2023-07-30T09:28:00;21.50;99.90
19031;DHT22;9648;51.130;13.978;2023-07-30T09:30:27;21.50;99.90
19031;DHT22;9648;51.130;13.978;2023-07-30T09:32:56;21.70;99.90
19031;DHT22;9648;51.130;13.978;2023-07-30T09:35:24;21.90;99.90
19031;DHT22;9648;51.130;13.978;2023-07-30T09:37:58;22.10;99.90
19031;DHT22;9648;51.130;13.978;2023-07-30T09:40:33;22.20;99.90
19031;DHT22;9648;51.130;13.978;2023-07-30T09:43:01;22.30;99.90
19031;DHT22;9648;51.130;13.978;2023-07-30T09:45:28;22.40;99.90
19031;DHT22;9648;51.130;13.978;2023-07-30T09:47:59;22.50;99.90
19031;DHT22;9648;51.130;13.978;2023-07-30T09:50:26;22.60;99.90
19031;DHT22;9648;51.130;13.978;2023-07-30T09:52:54;22.60;99.90
19031;DHT22;9648;51.130;13.978;2023-07-30T09:55:21;22.60;99.90
19031;DHT22;9648;51.130;13.978;2023-07-30T09:57:49;22.70;99.90
19031;DHT22;9648;51.130;13.978;2023-07-30T10:00:16;22.70;99.90
19031;DHT22;9648;51.130;13.978;2023-07-30T10:02:46;22.80;99.90
19031;DHT22;9648;51.130;13.978;2023-07-30T10:05:15;22.90;99.90
19031;DHT22;9648;51.130;13.978;2023-07-30T10:07:47;23.00;99.90
19031;DHT22;9648;51.130;13.978;2023-07-30T10:10:17;23.10;99.90
19031;DHT22;9648;51.130;13.978;2023-07-30T10:12:44;23.20;99.90
19031;DHT22;9648;51.130;13.978;2023-07-30T10:15:12;23.20;99.90
19031;DHT22;9648;51.130;13.978;2023-07-30T10:17:40;23.10;99.90
19031;DHT22;9648;51.130;13.978;2023-07-30T10:20:23;23.10;99.90
19031;DHT22;9648;51.130;13.978;2023-07-30T10:22:52;23.30;99.90
19031;DHT22;9648;51.130;13.978;2023-07-30T10:25:21;23.40;99.90
19031;DHT22;9648;51.130;13.978;2023-07-30T10:27:50;23.40;99.90
19031;DHT22;9648;51.130;13.978;2023-07-30T10:30:20;23.30;99.90
19031;DHT22;9648;51.130;13.978;2023-07-30T10:33:01;23.40;99.90
19031;DHT22;9648;51.130;13.978;2023-07-30T10:35:36;23.30;99.90
19031;DHT22;9648;51.130;13.978;2023-07-30T10:38:15;23.20;99.90
19031;DHT22;9648;51.130;13.978;2023-07-30T10:40:59;22.90;99.90
19031;DHT22;9648;51.130;13.978;2023-07-30T10:43:28;22.70;99.90
19031;DHT22;9648;51.130;13.978;2023-07-30T10:45:57;22.60;99.90
19031;DHT22;9648;51.130;13.978;2023-07-30T10:48:31;22.50;99.90
19031;DHT22;9648;51.130;13.978;2023-07-30T10:51:00;22.50;99.90
19031;DHT22;9648;51.130;13.978;2023-07-30T10:53:27;22.60;99.90
19031;DHT22;9648;51.130;13.978;2023-07-30T10:55:54;22.60;99.90
19031;DHT22;9648;51.130;13.978;2023-07-30T10:58:25;22.60;99.90
19031;DHT22;9648;51.130;13.978;2023-07-30T11:00:52;22.50;99.90
19031;DHT22;9648;51.130;13.978;2023-07-30T11:03:20;22.40;99.90
19031;DHT22;9648;51.130;13.978;2023-07-30T11:05:47;22.30;99.90
19031;DHT22;9648;51.130;13.978;2023-07-30T11:08:15;22.40;99.90
19031;DHT22;9648;51.130;13.978;2023-07-30T11:10:42;22.40;99.90
19031;DHT22;9648;51.130;13.978;2023-07-30T11:13:09;22.40;99.90
19031;DHT22;9648;51.130;13.978;2023-07-30T11:15:41;22.30;99.90
19031;DHT22;9648;51.130;13.978;2023-07-30T11:18:08;22.30;99.90
19031;DHT22;9648;51.130;13.978;2023-07-30T11:20:36;22.40;99.90
19031;DHT22;9648;51.130;13.978;2023-07-30T11:23:16;22.50;99.90
19031;DHT22;9648;51.130;13.978;2023-07-30T11:25:46;22.60;99.90
19031;DHT22;9648;51.130;13.978;2023-07-30T11:28:14;22.80;99.90
19031;DHT22;9648;51.130;13.978;2023-07-30T11:30:41;22.90;99.90
19031;DHT22;9648;51.130;13.978;2023-07-30T11:33:17;23.00;99.90
19031;DHT22;9648;51.130;13.978;2023-07-30T11:35:45;23.20;99.90
19031;DHT22;9648;51.130;13.978;2023-07-30T11:38:12;23.40;99.90
19031;DHT22;9648;51.130;13.978;2023-07-30T11:40:40;23.60;99.90
19031;DHT22;9648;51.130;13.978;2023-07-30T11:43:07;23.80;99.90
19031;DHT22;9648;51.130;13.978;2023-07-30T11:45:34;24.00;99.90
19031;DHT22;9648;51.130;13.978;2023-07-30T11:48:08;24.10;99.90
19031;DHT22;9648;51.130;13.978;2023-07-30T11:50:47;24.30;99.90
19031;DHT22;9648;51.130;13.978;2023-07-30T11:53:14;24.40;99.90
19031;DHT22;9648;51.130;13.978;2023-07-30T11:55:42;24.60;99.90
19031;DHT22;9648;51.130;13.978;2023-07-30T11:58:11;24.80;99.90
19031;DHT22;9648;51.130;13.978;2023-07-30T12:00:39;25.00;99.90
19031;DHT22;9648;51.130;13.978;2023-07-30T12:03:07;25.20;99.90
19031;DHT22;9648;51.130;13.978;2023-07-30T12:05:36;25.40;99.90
19031;DHT22;9648;51.130;13.978;2023-07-30T12:08:06;25.40;99.90
19031;DHT22;9648;51.130;13.978;2023-07-30T12:10:42;25.50;99.30
19031;DHT22;9648;51.130;13.978;2023-07-30T12:13:15;25.40;98.80
19031;DHT22;9648;51.130;13.978;2023-07-30T12:15:44;25.30;98.00
19031;DHT22;9648;51.130;13.978;2023-07-30T12:18:11;25.40;98.50
19031;DHT22;9648;51.130;13.978;2023-07-30T12:20:37;25.40;95.70
19031;DHT22;9648;51.130;13.978;2023-07-30T12:23:05;25.40;96.00
19031;DHT22;9648;51.130;13.978;2023-07-30T12:25:32;25.20;97.70
19031;DHT22;9648;51.130;13.978;2023-07-30T12:28:00;25.20;96.70
19031;DHT22;9648;51.130;13.978;2023-07-30T12:30:26;25.20;97.00
19031;DHT22;9648;51.130;13.978;2023-07-30T12:32:53;25.20;96.80
19031;DHT22;9648;51.130;13.978;2023-07-30T12:35:20;25.20;96.70
19031;DHT22;9648;51.130;13.978;2023-07-30T12:37:47;25.20;97.20
19031;DHT22;9648;51.130;13.978;2023-07-30T12:40:15;25.20;97.00
19031;DHT22;9648;51.130;13.978;2023-07-30T12:42:42;25.30;98.80
19031;DHT22;9648;51.130;13.978;2023-07-30T12:45:09;25.20;93.20
19031;DHT22;9648;51.130;13.978;2023-07-30T12:47:37;25.00;94.70
19031;DHT22;9648;51.130;13.978;2023-07-30T12:50:04;25.00;94.90
19031;DHT22;9648;51.130;13.978;2023-07-30T12:52:32;25.10;93.60
19031;DHT22;9648;51.130;13.978;2023-07-30T12:55:00;25.10;93.30
19031;DHT22;9648;51.130;13.978;2023-07-30T12:57:28;25.10;92.30
19031;DHT22;9648;51.130;13.978;2023-07-30T12:59:55;25.20;92.90
19031;DHT22;9648;51.130;13.978;2023-07-30T13:02:22;25.30;94.00
19031;DHT22;9648;51.130;13.978;2023-07-30T13:04:48;25.40;91.70
19031;DHT22;9648;51.130;13.978;2023-07-30T13:07:15;25.40;91.30
19031;DHT22;9648;51.130;13.978;2023-07-30T13:09:42;25.50;92.90
19031;DHT22;9648;51.130;13.978;2023-07-30T13:12:09;25.60;93.40
19031;DHT22;9648;51.130;13.978;2023-07-30T13:14:37;25.70;94.10
19031;DHT22;9648;51.130;13.978;2023-07-30T13:17:04;25.70;90.60
19031;DHT22;9648;51.130;13.978;2023-07-30T13:19:30;25.80;92.30
19031;DHT22;9648;51.130;13.978;2023-07-30T13:21:58;25.90;91.40
19031;DHT22;9648;51.130;13.978;2023-07-30T13:24:25;26.00;90.50
19031;DHT22;9648;51.130;13.978;2023-07-30T13:26:55;26.00;88.00
19031;DHT22;9648;51.130;13.978;2023-07-30T13:29:22;25.90;88.60
19031;DHT22;9648;51.130;13.978;2023-07-30T13:31:50;25.80;87.60
19031;DHT22;9648;51.130;13.978;2023-07-30T13:34:17;25.80;88.30
19031;DHT22;9648;51.130;13.978;2023-07-30T13:36:44;25.80;87.20
19031;DHT22;9648;51.130;13.978;2023-07-30T13:39:10;25.80;87.30
19031;DHT22;9648;51.130;13.978;2023-07-30T13:41:37;25.90;85.70
19031;DHT22;9648;51.130;13.978;2023-07-30T13:44:04;26.00;86.70
19031;DHT22;9648;51.130;13.978;2023-07-30T13:46:31;26.00;86.90
19031;DHT22;9648;51.130;13.978;2023-07-30T13:48:59;26.00;87.80
19031;DHT22;9648;51.130;13.978;2023-07-30T13:51:25;26.00;87.00
19031;DHT22;9648;51.130;13.978;2023-07-30T13:53:57;26.00;84.60
19031;DHT22;9648;51.130;13.978;2023-07-30T13:56:24;25.90;81.30
19031;DHT22;9648;51.130;13.978;2023-07-30T13:58:51;25.80;85.00
19031;DHT22;9648;51.130;13.978;2023-07-30T14:01:18;25.80;82.50
19031;DHT22;9648;51.130;13.978;2023-07-30T14:03:44;25.80;81.20
19031;DHT22;9648;51.130;13.978;2023-07-30T14:06:13;25.80;85.60
19031;DHT22;9648;51.130;13.978;2023-07-30T14:08:40;25.80;86.20
19031;DHT22;9648;51.130;13.978;2023-07-30T14:11:06;25.90;82.80
19031;DHT22;9648;51.130;13.978;2023-07-30T14:13:33;26.10;81.60
19031;DHT22;9648;51.130;13.978;2023-07-30T14:16:00;26.00;80.40
19031;DHT22;9648;51.130;13.978;2023-07-30T14:18:27;25.90;83.40
19031;DHT22;9648;51.130;13.978;2023-07-30T14:20:53;25.80;84.70
19031;DHT22;9648;51.130;13.978;2023-07-30T14:23:21;25.80;81.90
19031;DHT22;9648;51.130;13.978;2023-07-30T14:25:48;25.70;86.10
19031;DHT22;9648;51.130;13.978;2023-07-30T14:28:15;25.70;81.70
19031;DHT22;9648;51.130;13.978;2023-07-30T14:30:42;25.80;84.50
19031;DHT22;9648;51.130;13.978;2023-07-30T14:33:09;25.80;83.50
19031;DHT22;9648;51.130;13.978;2023-07-30T14:35:36;25.90;87.80
19031;DHT22;9648;51.130;13.978;2023-07-30T14:38:04;26.00;85.10
19031;DHT22;9648;51.130;13.978;2023-07-30T14:40:32;26.00;82.60
19031;DHT22;9648;51.130;13.978;2023-07-30T14:42:59;25.90;84.70
19031;DHT22;9648;51.130;13.978;2023-07-30T14:45:26;25.60;89.30
19031;DHT22;9648;51.130;13.978;2023-07-30T14:47:53;25.40;90.00
19031;DHT22;9648;51.130;13.978;2023-07-30T14:50:20;25.20;87.30
19031;DHT22;9648;51.130;13.978;2023-07-30T14:52:46;24.90;83.10
19031;DHT22;9648;51.130;13.978;2023-07-30T14:55:13;24.70;84.90
19031;DHT22;9648;51.130;13.978;2023-07-30T14:57:42;24.40;83.70
19031;DHT22;9648;51.130;13.978;2023-07-30T15:00:10;24.20;84.10
19031;DHT22;9648;51.130;13.978;2023-07-30T15:02:39;24.00;86.80
19031;DHT22;9648;51.130;13.978;2023-07-30T15:05:07;23.80;90.00
19031;DHT22;9648;51.130;13.978;2023-07-30T15:07:34;23.70;90.50
19031;DHT22;9648;51.130;13.978;2023-07-30T15:10:01;23.60;93.20
19031;DHT22;9648;51.130;13.978;2023-07-30T15:12:28;23.30;99.30
19031;DHT22;9648;51.130;13.978;2023-07-30T15:14:56;23.20;99.90
19031;DHT22;9648;51.130;13.978;2023-07-30T15:17:23;22.90;99.90
19031;DHT22;9648;51.130;13.978;2023-07-30T15:19:50;22.60;99.90
19031;DHT22;9648;51.130;13.978;2023-07-30T15:22:20;22.40;99.90
19031;DHT22;9648;51.130;13.978;2023-07-30T15:24:47;22.10;99.90
19031;DHT22;9648;51.130;13.978;2023-07-30T15:27:14;21.80;99.90
19031;DHT22;9648;51.130;13.978;2023-07-30T15:29:42;21.60;99.90
19031;DHT22;9648;51.130;13.978;2023-07-30T15:32:11;21.30;99.90